sensor_id;sensor_type;location;lat;lon;timestamp;P1;durP1;ratioP1;P2;durP2;ratioP2
51636;SDS011;37713;53.254;6.460;2023-12-20T00:01:34;13.82;;;2.38;;
51636;SDS011;37713;53.254;6.460;2023-12-20T00:04:01;15.00;;;2.00;;
51636;SDS011;37713;53.254;6.460;2023-12-20T00:06:30;15.95;;;2.10;;
51636;SDS011;37713;53.254;6.460;2023-12-20T00:08:56;15.23;;;2.10;;
51636;SDS011;37713;53.254;6.460;2023-12-20T00:11:23;11.70;;;2.03;;
51636;SDS011;37713;53.254;6.460;2023-12-20T00:13:49;19.58;;;2.45;;
51636;SDS011;37713;53.254;6.460;2023-12-20T00:16:15;14.27;;;2.20;;
51636;SDS011;37713;53.254;6.460;2023-12-20T00:18:40;11.55;;;1.83;;
51636;SDS011;37713;53.254;6.460;2023-12-20T00:21:06;13.18;;;1.95;;
51636;SDS011;37713;53.254;6.460;2023-12-20T00:23:32;14.13;;;1.98;;
51636;SDS011;37713;53.254;6.460;2023-12-20T00:25:58;20.05;;;2.20;;
51636;SDS011;37713;53.254;6.460;2023-12-20T00:28:24;18.85;;;2.17;;
51636;SDS011;37713;53.254;6.460;2023-12-20T00:30:49;14.90;;;2.17;;
51636;SDS011;37713;53.254;6.460;2023-12-20T00:33:15;12.90;;;2.25;;
51636;SDS011;37713;53.254;6.460;2023-12-20T00:35:41;19.65;;;2.40;;
51636;SDS011;37713;53.254;6.460;2023-12-20T00:38:07;16.70;;;2.55;;
51636;SDS011;37713;53.254;6.460;2023-12-20T00:40:33;16.10;;;2.45;;
51636;SDS011;37713;53.254;6.460;2023-12-20T00:42:59;18.08;;;2.47;;
51636;SDS011;37713;53.254;6.460;2023-12-20T00:45:25;14.40;;;2.35;;
51636;SDS011;37713;53.254;6.460;2023-12-20T00:47:51;14.65;;;2.50;;
51636;SDS011;37713;53.254;6.460;2023-12-20T00:50:17;13.00;;;2.75;;
51636;SDS011;37713;53.254;6.460;2023-12-20T00:52:43;16.25;;;2.45;;
51636;SDS011;37713;53.254;6.460;2023-12-20T00:55:09;17.90;;;2.83;;
51636;SDS011;37713;53.254;6.460;2023-12-20T00:57:35;21.92;;;2.10;;
51636;SDS011;37713;53.254;6.460;2023-12-20T01:00:00;13.32;;;2.03;;
51636;SDS011;37713;53.254;6.460;2023-12-20T01:02:27;17.25;;;2.10;;
51636;SDS011;37713;53.254;6.460;2023-12-20T01:04:53;18.25;;;2.88;;
51636;SDS011;37713;53.254;6.460;2023-12-20T01:07:18;12.43;;;1.80;;
51636;SDS011;37713;53.254;6.460;2023-12-20T01:09:44;12.75;;;1.90;;
51636;SDS011;37713;53.254;6.460;2023-12-20T01:12:10;17.02;;;1.98;;
51636;SDS011;37713;53.254;6.460;2023-12-20T01:14:36;13.25;;;2.13;;
51636;SDS011;37713;53.254;6.460;2023-12-20T01:17:02;11.30;;;1.92;;
51636;SDS011;37713;53.254;6.460;2023-12-20T01:19:27;19.52;;;2.42;;
51636;SDS011;37713;53.254;6.460;2023-12-20T01:21:55;14.18;;;2.55;;
51636;SDS011;37713;53.254;6.460;2023-12-20T01:24:20;19.70;;;3.35;;
51636;SDS011;37713;53.254;6.460;2023-12-20T01:26:46;14.23;;;2.00;;
51636;SDS011;37713;53.254;6.460;2023-12-20T01:29:12;11.02;;;2.45;;
51636;SDS011;37713;53.254;6.460;2023-12-20T01:31:39;21.25;;;2.97;;
51636;SDS011;37713;53.254;6.460;2023-12-20T01:34:05;20.35;;;2.83;;
51636;SDS011;37713;53.254;6.460;2023-12-20T01:36:32;17.42;;;2.65;;
51636;SDS011;37713;53.254;6.460;2023-12-20T01:38:58;19.58;;;2.50;;
51636;SDS011;37713;53.254;6.460;2023-12-20T01:41:24;16.58;;;2.63;;
51636;SDS011;37713;53.254;6.460;2023-12-20T01:43:50;18.08;;;2.83;;
51636;SDS011;37713;53.254;6.460;2023-12-20T01:46:16;20.10;;;2.95;;
51636;SDS011;37713;53.254;6.460;2023-12-20T01:48:42;22.38;;;4.20;;
51636;SDS011;37713;53.254;6.460;2023-12-20T01:51:08;19.30;;;3.50;;
51636;SDS011;37713;53.254;6.460;2023-12-20T01:53:36;18.27;;;2.58;;
51636;SDS011;37713;53.254;6.460;2023-12-20T01:56:02;22.38;;;2.60;;
51636;SDS011;37713;53.254;6.460;2023-12-20T01:58:28;19.08;;;3.78;;
51636;SDS011;37713;53.254;6.460;2023-12-20T02:00:54;19.83;;;3.40;;
51636;SDS011;37713;53.254;6.460;2023-12-20T02:03:20;14.27;;;2.45;;
51636;SDS011;37713;53.254;6.460;2023-12-20T02:05:46;16.73;;;2.55;;
51636;SDS011;37713;53.254;6.460;2023-12-20T02:08:13;12.68;;;2.85;;
51636;SDS011;37713;53.254;6.460;2023-12-20T02:10:39;21.00;;;2.53;;
51636;SDS011;37713;53.254;6.460;2023-12-20T02:13:06;20.35;;;2.38;;
51636;SDS011;37713;53.254;6.460;2023-12-20T02:15:32;24.27;;;2.58;;
51636;SDS011;37713;53.254;6.460;2023-12-20T02:17:58;21.25;;;3.08;;
51636;SDS011;37713;53.254;6.460;2023-12-20T02:20:24;21.02;;;2.85;;
51636;SDS011;37713;53.254;6.460;2023-12-20T02:22:50;18.95;;;2.83;;
51636;SDS011;37713;53.254;6.460;2023-12-20T02:25:16;22.00;;;2.78;;
51636;SDS011;37713;53.254;6.460;2023-12-20T02:27:42;25.27;;;3.83;;
51636;SDS011;37713;53.254;6.460;2023-12-20T02:30:09;21.17;;;2.85;;
51636;SDS011;37713;53.254;6.460;2023-12-20T02:32:35;20.63;;;3.10;;
51636;SDS011;37713;53.254;6.460;2023-12-20T02:35:01;22.30;;;3.58;;
51636;SDS011;37713;53.254;6.460;2023-12-20T02:37:27;30.20;;;3.78;;
51636;SDS011;37713;53.254;6.460;2023-12-20T02:39:53;17.85;;;3.10;;
51636;SDS011;37713;53.254;6.460;2023-12-20T02:42:18;19.60;;;3.50;;
51636;SDS011;37713;53.254;6.460;2023-12-20T02:44:44;19.00;;;3.40;;
51636;SDS011;37713;53.254;6.460;2023-12-20T02:47:10;19.20;;;3.38;;
51636;SDS011;37713;53.254;6.460;2023-12-20T02:49:36;26.17;;;3.40;;
51636;SDS011;37713;53.254;6.460;2023-12-20T02:52:01;25.55;;;4.05;;
51636;SDS011;37713;53.254;6.460;2023-12-20T02:54:27;20.63;;;3.50;;
51636;SDS011;37713;53.254;6.460;2023-12-20T02:56:53;30.08;;;4.95;;
51636;SDS011;37713;53.254;6.460;2023-12-20T02:59:19;24.63;;;4.68;;
51636;SDS011;37713;53.254;6.460;2023-12-20T03:01:45;23.73;;;3.13;;
51636;SDS011;37713;53.254;6.460;2023-12-20T03:04:12;30.85;;;5.30;;
51636;SDS011;37713;53.254;6.460;2023-12-20T03:06:38;30.65;;;4.15;;
51636;SDS011;37713;53.254;6.460;2023-12-20T03:09:04;28.92;;;4.20;;
51636;SDS011;37713;53.254;6.460;2023-12-20T03:11:30;29.52;;;4.40;;
51636;SDS011;37713;53.254;6.460;2023-12-20T03:13:56;27.83;;;3.75;;
51636;SDS011;37713;53.254;6.460;2023-12-20T03:16:22;32.45;;;5.32;;
51636;SDS011;37713;53.254;6.460;2023-12-20T03:18:48;32.60;;;4.20;;
51636;SDS011;37713;53.254;6.460;2023-12-20T03:21:14;30.10;;;4.00;;
51636;SDS011;37713;53.254;6.460;2023-12-20T03:23:40;28.08;;;4.35;;
51636;SDS011;37713;53.254;6.460;2023-12-20T03:26:07;28.00;;;3.38;;
51636;SDS011;37713;53.254;6.460;2023-12-20T03:28:33;36.67;;;4.28;;
51636;SDS011;37713;53.254;6.460;2023-12-20T03:30:59;22.63;;;3.20;;
51636;SDS011;37713;53.254;6.460;2023-12-20T03:33:25;24.45;;;2.90;;
51636;SDS011;37713;53.254;6.460;2023-12-20T03:35:51;28.45;;;3.25;;
51636;SDS011;37713;53.254;6.460;2023-12-20T03:38:17;21.38;;;3.08;;
51636;SDS011;37713;53.254;6.460;2023-12-20T03:40:43;32.63;;;3.65;;
51636;SDS011;37713;53.254;6.460;2023-12-20T03:43:08;24.25;;;3.50;;
51636;SDS011;37713;53.254;6.460;2023-12-20T03:45:34;25.42;;;4.35;;
51636;SDS011;37713;53.254;6.460;2023-12-20T03:48:00;26.58;;;4.43;;
51636;SDS011;37713;53.254;6.460;2023-12-20T03:50:26;24.02;;;4.20;;
51636;SDS011;37713;53.254;6.460;2023-12-20T03:52:52;33.47;;;3.83;;
51636;SDS011;37713;53.254;6.460;2023-12-20T03:55:18;31.27;;;3.78;;
51636;SDS011;37713;53.254;6.460;2023-12-20T03:57:44;29.63;;;3.75;;
51636;SDS011;37713;53.254;6.460;2023-12-20T04:00:10;30.60;;;4.15;;
51636;SDS011;37713;53.254;6.460;2023-12-20T04:02:37;26.92;;;3.72;;
51636;SDS011;37713;53.254;6.460;2023-12-20T04:05:04;26.05;;;4.07;;
51636;SDS011;37713;53.254;6.460;2023-12-20T04:07:30;24.58;;;4.63;;
51636;SDS011;37713;53.254;6.460;2023-12-20T04:09:56;27.88;;;3.80;;
51636;SDS011;37713;53.254;6.460;2023-12-20T04:12:22;28.88;;;4.22;;
51636;SDS011;37713;53.254;6.460;2023-12-20T04:14:48;28.33;;;4.45;;
51636;SDS011;37713;53.254;6.460;2023-12-20T04:17:14;27.63;;;4.18;;
51636;SDS011;37713;53.254;6.460;2023-12-20T04:19:44;30.05;;;4.10;;
51636;SDS011;37713;53.254;6.460;2023-12-20T04:22:09;24.17;;;4.00;;
51636;SDS011;37713;53.254;6.460;2023-12-20T04:24:35;21.85;;;4.18;;
51636;SDS011;37713;53.254;6.460;2023-12-20T04:27:01;31.63;;;4.35;;
51636;SDS011;37713;53.254;6.460;2023-12-20T04:29:27;32.13;;;3.97;;
51636;SDS011;37713;53.254;6.460;2023-12-20T04:31:53;24.88;;;4.13;;
51636;SDS011;37713;53.254;6.460;2023-12-20T04:34:19;22.38;;;3.90;;
51636;SDS011;37713;53.254;6.460;2023-12-20T04:36:45;30.52;;;3.88;;
51636;SDS011;37713;53.254;6.460;2023-12-20T04:39:12;27.08;;;4.00;;
51636;SDS011;37713;53.254;6.460;2023-12-20T04:41:39;31.35;;;4.30;;
51636;SDS011;37713;53.254;6.460;2023-12-20T04:44:05;24.85;;;3.63;;
51636;SDS011;37713;53.254;6.460;2023-12-20T04:46:31;22.83;;;4.03;;
51636;SDS011;37713;53.254;6.460;2023-12-20T04:48:57;27.30;;;4.05;;
51636;SDS011;37713;53.254;6.460;2023-12-20T04:51:23;27.05;;;4.00;;
51636;SDS011;37713;53.254;6.460;2023-12-20T04:53:49;33.33;;;4.05;;
51636;SDS011;37713;53.254;6.460;2023-12-20T04:56:14;23.77;;;4.38;;
51636;SDS011;37713;53.254;6.460;2023-12-20T04:58:41;33.08;;;4.57;;
51636;SDS011;37713;53.254;6.460;2023-12-20T05:01:08;26.77;;;3.80;;
51636;SDS011;37713;53.254;6.460;2023-12-20T05:03:34;33.17;;;4.40;;
51636;SDS011;37713;53.254;6.460;2023-12-20T05:06:01;29.80;;;3.90;;
51636;SDS011;37713;53.254;6.460;2023-12-20T05:08:27;36.03;;;4.53;;
51636;SDS011;37713;53.254;6.460;2023-12-20T05:10:56;32.35;;;4.68;;
51636;SDS011;37713;53.254;6.460;2023-12-20T05:13:22;27.63;;;4.18;;
51636;SDS011;37713;53.254;6.460;2023-12-20T05:15:48;25.60;;;3.70;;
51636;SDS011;37713;53.254;6.460;2023-12-20T05:18:14;32.05;;;4.30;;
51636;SDS011;37713;53.254;6.460;2023-12-20T05:20:40;27.42;;;4.07;;
51636;SDS011;37713;53.254;6.460;2023-12-20T05:23:06;23.35;;;3.63;;
51636;SDS011;37713;53.254;6.460;2023-12-20T05:25:32;27.95;;;5.03;;
51636;SDS011;37713;53.254;6.460;2023-12-20T05:27:58;31.45;;;4.35;;
51636;SDS011;37713;53.254;6.460;2023-12-20T05:30:24;32.40;;;4.68;;
51636;SDS011;37713;53.254;6.460;2023-12-20T05:32:49;23.52;;;4.80;;
51636;SDS011;37713;53.254;6.460;2023-12-20T05:35:16;36.75;;;5.95;;
51636;SDS011;37713;53.254;6.460;2023-12-20T05:37:42;27.25;;;4.57;;
51636;SDS011;37713;53.254;6.460;2023-12-20T05:40:08;25.63;;;4.00;;
51636;SDS011;37713;53.254;6.460;2023-12-20T05:42:37;23.77;;;4.18;;
51636;SDS011;37713;53.254;6.460;2023-12-20T05:45:03;24.30;;;3.67;;
51636;SDS011;37713;53.254;6.460;2023-12-20T05:47:30;33.05;;;5.00;;
51636;SDS011;37713;53.254;6.460;2023-12-20T05:49:56;33.40;;;4.38;;
51636;SDS011;37713;53.254;6.460;2023-12-20T05:52:22;23.33;;;4.22;;
51636;SDS011;37713;53.254;6.460;2023-12-20T05:54:48;32.70;;;5.15;;
51636;SDS011;37713;53.254;6.460;2023-12-20T05:57:13;27.75;;;5.03;;
51636;SDS011;37713;53.254;6.460;2023-12-20T05:59:39;27.55;;;4.07;;
51636;SDS011;37713;53.254;6.460;2023-12-20T06:02:05;35.17;;;4.85;;
51636;SDS011;37713;53.254;6.460;2023-12-20T06:04:31;24.75;;;4.45;;
51636;SDS011;37713;53.254;6.460;2023-12-20T06:06:57;26.85;;;3.78;;
51636;SDS011;37713;53.254;6.460;2023-12-20T06:09:23;24.70;;;4.60;;
51636;SDS011;37713;53.254;6.460;2023-12-20T06:11:49;27.90;;;4.40;;
51636;SDS011;37713;53.254;6.460;2023-12-20T06:14:16;30.92;;;4.25;;
51636;SDS011;37713;53.254;6.460;2023-12-20T06:16:42;29.20;;;4.45;;
51636;SDS011;37713;53.254;6.460;2023-12-20T06:19:08;23.67;;;4.40;;
51636;SDS011;37713;53.254;6.460;2023-12-20T06:21:33;25.48;;;4.13;;
51636;SDS011;37713;53.254;6.460;2023-12-20T06:23:59;30.42;;;4.38;;
51636;SDS011;37713;53.254;6.460;2023-12-20T06:26:25;28.98;;;4.45;;
51636;SDS011;37713;53.254;6.460;2023-12-20T06:28:51;29.88;;;4.43;;
51636;SDS011;37713;53.254;6.460;2023-12-20T06:31:17;24.27;;;4.20;;
51636;SDS011;37713;53.254;6.460;2023-12-20T06:33:43;31.98;;;5.38;;
51636;SDS011;37713;53.254;6.460;2023-12-20T06:36:12;25.67;;;4.70;;
51636;SDS011;37713;53.254;6.460;2023-12-20T06:38:38;32.40;;;4.07;;
51636;SDS011;37713;53.254;6.460;2023-12-20T06:41:05;31.63;;;5.43;;
51636;SDS011;37713;53.254;6.460;2023-12-20T06:43:31;32.88;;;4.97;;
51636;SDS011;37713;53.254;6.460;2023-12-20T06:45:58;34.88;;;5.00;;
51636;SDS011;37713;53.254;6.460;2023-12-20T06:48:26;30.77;;;4.97;;
51636;SDS011;37713;53.254;6.460;2023-12-20T06:50:52;35.85;;;6.03;;
51636;SDS011;37713;53.254;6.460;2023-12-20T06:53:18;25.20;;;4.03;;
51636;SDS011;37713;53.254;6.460;2023-12-20T06:55:44;25.73;;;3.83;;
51636;SDS011;37713;53.254;6.460;2023-12-20T06:58:10;29.17;;;4.57;;
51636;SDS011;37713;53.254;6.460;2023-12-20T07:00:35;30.58;;;4.88;;
51636;SDS011;37713;53.254;6.460;2023-12-20T07:03:01;31.45;;;5.00;;
51636;SDS011;37713;53.254;6.460;2023-12-20T07:05:27;31.08;;;5.03;;
51636;SDS011;37713;53.254;6.460;2023-12-20T07:07:53;29.90;;;4.63;;
51636;SDS011;37713;53.254;6.460;2023-12-20T07:10:19;22.88;;;4.32;;
51636;SDS011;37713;53.254;6.460;2023-12-20T07:12:44;29.63;;;4.68;;
51636;SDS011;37713;53.254;6.460;2023-12-20T07:15:10;26.88;;;5.18;;
51636;SDS011;37713;53.254;6.460;2023-12-20T07:17:37;30.20;;;5.35;;
51636;SDS011;37713;53.254;6.460;2023-12-20T07:20:03;26.90;;;4.18;;
51636;SDS011;37713;53.254;6.460;2023-12-20T07:22:30;32.47;;;4.28;;
51636;SDS011;37713;53.254;6.460;2023-12-20T07:24:59;26.35;;;4.78;;
51636;SDS011;37713;53.254;6.460;2023-12-20T07:27:25;27.27;;;4.45;;
51636;SDS011;37713;53.254;6.460;2023-12-20T07:29:51;34.03;;;5.43;;
51636;SDS011;37713;53.254;6.460;2023-12-20T07:32:17;27.15;;;4.60;;
51636;SDS011;37713;53.254;6.460;2023-12-20T07:34:43;29.90;;;4.40;;
51636;SDS011;37713;53.254;6.460;2023-12-20T07:37:09;28.05;;;4.93;;
51636;SDS011;37713;53.254;6.460;2023-12-20T07:39:37;28.88;;;4.38;;
51636;SDS011;37713;53.254;6.460;2023-12-20T07:42:05;24.70;;;4.32;;
51636;SDS011;37713;53.254;6.460;2023-12-20T07:44:31;29.80;;;4.60;;
51636;SDS011;37713;53.254;6.460;2023-12-20T07:46:57;23.65;;;4.10;;
51636;SDS011;37713;53.254;6.460;2023-12-20T07:49:23;30.73;;;4.70;;
51636;SDS011;37713;53.254;6.460;2023-12-20T07:51:49;28.98;;;4.13;;
51636;SDS011;37713;53.254;6.460;2023-12-20T07:54:15;28.90;;;4.50;;
51636;SDS011;37713;53.254;6.460;2023-12-20T07:56:41;22.98;;;4.32;;
51636;SDS011;37713;53.254;6.460;2023-12-20T07:59:07;31.63;;;4.60;;
51636;SDS011;37713;53.254;6.460;2023-12-20T08:01:33;32.40;;;4.30;;
51636;SDS011;37713;53.254;6.460;2023-12-20T08:03:59;25.00;;;4.45;;
51636;SDS011;37713;53.254;6.460;2023-12-20T08:06:24;21.60;;;4.30;;
51636;SDS011;37713;53.254;6.460;2023-12-20T08:08:53;26.75;;;4.78;;
51636;SDS011;37713;53.254;6.460;2023-12-20T08:11:18;28.38;;;5.00;;
51636;SDS011;37713;53.254;6.460;2023-12-20T08:13:44;27.05;;;4.03;;
51636;SDS011;37713;53.254;6.460;2023-12-20T08:16:10;31.17;;;5.03;;
51636;SDS011;37713;53.254;6.460;2023-12-20T08:18:38;31.25;;;4.50;;
51636;SDS011;37713;53.254;6.460;2023-12-20T08:21:04;33.13;;;4.63;;
51636;SDS011;37713;53.254;6.460;2023-12-20T08:23:32;35.58;;;4.97;;
51636;SDS011;37713;53.254;6.460;2023-12-20T08:26:03;29.80;;;3.92;;
51636;SDS011;37713;53.254;6.460;2023-12-20T08:28:32;22.08;;;3.80;;
51636;SDS011;37713;53.254;6.460;2023-12-20T08:30:58;24.13;;;4.28;;
51636;SDS011;37713;53.254;6.460;2023-12-20T08:33:25;14.73;;;1.55;;
51636;SDS011;37713;53.254;6.460;2023-12-20T08:35:51;6.93;;;1.30;;
51636;SDS011;37713;53.254;6.460;2023-12-20T08:38:17;12.85;;;1.52;;
51636;SDS011;37713;53.254;6.460;2023-12-20T08:40:43;14.18;;;2.35;;
51636;SDS011;37713;53.254;6.460;2023-12-20T08:43:10;12.93;;;1.33;;
51636;SDS011;37713;53.254;6.460;2023-12-20T08:45:35;9.13;;;1.55;;
51636;SDS011;37713;53.254;6.460;2023-12-20T08:48:02;16.30;;;1.73;;
51636;SDS011;37713;53.254;6.460;2023-12-20T08:50:28;11.23;;;1.27;;
51636;SDS011;37713;53.254;6.460;2023-12-20T08:52:54;9.38;;;1.92;;
51636;SDS011;37713;53.254;6.460;2023-12-20T08:55:20;8.32;;;1.30;;
51636;SDS011;37713;53.254;6.460;2023-12-20T08:57:46;15.65;;;2.42;;
51636;SDS011;37713;53.254;6.460;2023-12-20T09:00:12;14.75;;;2.75;;
51636;SDS011;37713;53.254;6.460;2023-12-20T09:02:38;15.05;;;2.65;;
51636;SDS011;37713;53.254;6.460;2023-12-20T09:05:04;17.45;;;2.38;;
51636;SDS011;37713;53.254;6.460;2023-12-20T09:07:30;18.27;;;2.50;;
51636;SDS011;37713;53.254;6.460;2023-12-20T09:09:57;20.23;;;2.38;;
51636;SDS011;37713;53.254;6.460;2023-12-20T09:12:23;15.38;;;2.78;;
51636;SDS011;37713;53.254;6.460;2023-12-20T09:14:50;20.30;;;2.17;;
51636;SDS011;37713;53.254;6.460;2023-12-20T09:17:17;12.35;;;2.03;;
51636;SDS011;37713;53.254;6.460;2023-12-20T09:19:44;14.07;;;2.08;;
51636;SDS011;37713;53.254;6.460;2023-12-20T09:22:10;13.30;;;1.63;;
51636;SDS011;37713;53.254;6.460;2023-12-20T09:24:36;11.60;;;1.52;;
51636;SDS011;37713;53.254;6.460;2023-12-20T09:27:02;10.43;;;1.33;;
51636;SDS011;37713;53.254;6.460;2023-12-20T09:29:28;10.13;;;1.17;;
51636;SDS011;37713;53.254;6.460;2023-12-20T09:31:54;14.40;;;1.90;;
51636;SDS011;37713;53.254;6.460;2023-12-20T09:34:20;10.32;;;1.10;;
51636;SDS011;37713;53.254;6.460;2023-12-20T09:36:47;8.77;;;1.25;;
51636;SDS011;37713;53.254;6.460;2023-12-20T09:39:13;10.93;;;1.85;;
51636;SDS011;37713;53.254;6.460;2023-12-20T09:41:42;7.88;;;1.17;;
51636;SDS011;37713;53.254;6.460;2023-12-20T09:44:15;14.82;;;1.42;;
51636;SDS011;37713;53.254;6.460;2023-12-20T09:46:43;10.63;;;1.40;;
51636;SDS011;37713;53.254;6.460;2023-12-20T09:49:11;11.63;;;1.40;;
51636;SDS011;37713;53.254;6.460;2023-12-20T09:51:37;9.95;;;1.17;;
51636;SDS011;37713;53.254;6.460;2023-12-20T09:54:04;14.32;;;1.40;;
51636;SDS011;37713;53.254;6.460;2023-12-20T09:56:30;12.27;;;1.85;;
51636;SDS011;37713;53.254;6.460;2023-12-20T09:58:56;12.30;;;1.63;;
51636;SDS011;37713;53.254;6.460;2023-12-20T10:01:26;14.70;;;1.77;;
51636;SDS011;37713;53.254;6.460;2023-12-20T10:03:54;12.43;;;2.10;;
51636;SDS011;37713;53.254;6.460;2023-12-20T10:06:23;18.83;;;2.05;;
51636;SDS011;37713;53.254;6.460;2023-12-20T10:08:49;15.00;;;2.85;;
51636;SDS011;37713;53.254;6.460;2023-12-20T10:11:15;11.10;;;1.63;;
51636;SDS011;37713;53.254;6.460;2023-12-20T10:13:42;16.65;;;1.70;;
51636;SDS011;37713;53.254;6.460;2023-12-20T10:16:08;15.38;;;1.73;;
51636;SDS011;37713;53.254;6.460;2023-12-20T10:18:33;23.90;;;2.47;;
51636;SDS011;37713;53.254;6.460;2023-12-20T10:21:00;15.38;;;2.05;;
51636;SDS011;37713;53.254;6.460;2023-12-20T10:23:26;20.17;;;1.90;;
51636;SDS011;37713;53.254;6.460;2023-12-20T10:25:58;14.88;;;1.98;;
51636;SDS011;37713;53.254;6.460;2023-12-20T10:28:25;20.35;;;2.45;;
51636;SDS011;37713;53.254;6.460;2023-12-20T10:30:56;20.38;;;2.22;;
51636;SDS011;37713;53.254;6.460;2023-12-20T10:33:28;19.88;;;1.90;;
51636;SDS011;37713;53.254;6.460;2023-12-20T10:35:57;14.02;;;2.35;;
51636;SDS011;37713;53.254;6.460;2023-12-20T10:38:23;19.08;;;2.42;;
51636;SDS011;37713;53.254;6.460;2023-12-20T10:40:49;13.75;;;2.30;;
51636;SDS011;37713;53.254;6.460;2023-12-20T10:43:22;16.42;;;2.35;;
51636;SDS011;37713;53.254;6.460;2023-12-20T10:45:51;16.02;;;2.63;;
51636;SDS011;37713;53.254;6.460;2023-12-20T10:48:17;19.13;;;3.17;;
51636;SDS011;37713;53.254;6.460;2023-12-20T10:50:43;18.55;;;2.70;;
51636;SDS011;37713;53.254;6.460;2023-12-20T10:53:10;16.45;;;2.75;;
51636;SDS011;37713;53.254;6.460;2023-12-20T10:55:37;17.85;;;2.45;;
51636;SDS011;37713;53.254;6.460;2023-12-20T10:58:07;17.20;;;2.72;;
51636;SDS011;37713;53.254;6.460;2023-12-20T11:00:34;23.27;;;2.95;;
51636;SDS011;37713;53.254;6.460;2023-12-20T11:03:09;18.92;;;2.83;;
51636;SDS011;37713;53.254;6.460;2023-12-20T11:05:45;20.88;;;2.67;;
51636;SDS011;37713;53.254;6.460;2023-12-20T11:08:44;18.35;;;2.67;;
51636;SDS011;37713;53.254;6.460;2023-12-20T11:11:21;24.52;;;3.08;;
51636;SDS011;37713;53.254;6.460;2023-12-20T11:13:57;23.30;;;3.00;;
51636;SDS011;37713;53.254;6.460;2023-12-20T11:16:26;21.85;;;2.97;;
51636;SDS011;37713;53.254;6.460;2023-12-20T11:18:52;24.27;;;2.95;;
51636;SDS011;37713;53.254;6.460;2023-12-20T11:21:17;20.73;;;4.00;;
51636;SDS011;37713;53.254;6.460;2023-12-20T11:23:43;16.33;;;2.90;;
51636;SDS011;37713;53.254;6.460;2023-12-20T11:26:09;17.33;;;2.92;;
51636;SDS011;37713;53.254;6.460;2023-12-20T11:28:35;23.58;;;3.38;;
51636;SDS011;37713;53.254;6.460;2023-12-20T11:31:01;24.38;;;3.08;;
51636;SDS011;37713;53.254;6.460;2023-12-20T11:33:35;21.55;;;3.75;;
51636;SDS011;37713;53.254;6.460;2023-12-20T11:36:02;20.23;;;3.17;;
51636;SDS011;37713;53.254;6.460;2023-12-20T11:39:11;22.45;;;3.85;;
51636;SDS011;37713;53.254;6.460;2023-12-20T11:41:23;15.57;;;2.80;;
51636;SDS011;37713;53.254;6.460;2023-12-20T11:43:49;14.65;;;2.33;;
51636;SDS011;37713;53.254;6.460;2023-12-20T11:46:18;17.50;;;3.00;;
51636;SDS011;37713;53.254;6.460;2023-12-20T11:48:44;15.38;;;2.65;;
51636;SDS011;37713;53.254;6.460;2023-12-20T11:51:10;20.27;;;2.92;;
51636;SDS011;37713;53.254;6.460;2023-12-20T11:53:37;15.02;;;2.80;;
51636;SDS011;37713;53.254;6.460;2023-12-20T11:56:07;24.40;;;3.22;;
51636;SDS011;37713;53.254;6.460;2023-12-20T11:58:33;19.17;;;3.17;;
51636;SDS011;37713;53.254;6.460;2023-12-20T12:00:59;18.33;;;2.47;;
51636;SDS011;37713;53.254;6.460;2023-12-20T12:03:27;24.52;;;4.70;;
51636;SDS011;37713;53.254;6.460;2023-12-20T12:05:53;25.42;;;3.22;;
51636;SDS011;37713;53.254;6.460;2023-12-20T12:08:19;18.63;;;2.78;;
51636;SDS011;37713;53.254;6.460;2023-12-20T12:10:45;23.05;;;3.40;;
51636;SDS011;37713;53.254;6.460;2023-12-20T12:13:11;20.40;;;2.67;;
51636;SDS011;37713;53.254;6.460;2023-12-20T12:15:37;21.38;;;3.28;;
51636;SDS011;37713;53.254;6.460;2023-12-20T12:18:03;19.73;;;2.50;;
51636;SDS011;37713;53.254;6.460;2023-12-20T12:20:30;18.67;;;3.35;;
51636;SDS011;37713;53.254;6.460;2023-12-20T12:23:03;21.05;;;2.75;;
51636;SDS011;37713;53.254;6.460;2023-12-20T12:25:31;19.30;;;2.63;;
51636;SDS011;37713;53.254;6.460;2023-12-20T12:28:00;17.15;;;3.03;;
51636;SDS011;37713;53.254;6.460;2023-12-20T12:30:26;20.00;;;3.00;;
51636;SDS011;37713;53.254;6.460;2023-12-20T12:32:53;20.77;;;2.38;;
51636;SDS011;37713;53.254;6.460;2023-12-20T12:35:21;15.00;;;2.75;;
51636;SDS011;37713;53.254;6.460;2023-12-20T12:37:47;17.02;;;2.28;;
51636;SDS011;37713;53.254;6.460;2023-12-20T12:40:13;14.60;;;2.42;;
51636;SDS011;37713;53.254;6.460;2023-12-20T12:42:41;11.15;;;2.00;;
51636;SDS011;37713;53.254;6.460;2023-12-20T12:45:10;13.90;;;2.55;;
51636;SDS011;37713;53.254;6.460;2023-12-20T12:47:36;15.98;;;3.05;;
51636;SDS011;37713;53.254;6.460;2023-12-20T12:50:03;13.45;;;2.03;;
51636;SDS011;37713;53.254;6.460;2023-12-20T12:52:32;21.90;;;3.58;;
51636;SDS011;37713;53.254;6.460;2023-12-20T12:54:58;16.15;;;2.83;;
51636;SDS011;37713;53.254;6.460;2023-12-20T12:57:24;13.80;;;2.65;;
51636;SDS011;37713;53.254;6.460;2023-12-20T12:59:50;18.58;;;2.78;;
51636;SDS011;37713;53.254;6.460;2023-12-20T13:02:16;12.48;;;2.13;;
51636;SDS011;37713;53.254;6.460;2023-12-20T13:04:42;18.33;;;2.75;;
51636;SDS011;37713;53.254;6.460;2023-12-20T13:07:08;14.73;;;3.30;;
51636;SDS011;37713;53.254;6.460;2023-12-20T13:09:36;21.67;;;2.35;;
51636;SDS011;37713;53.254;6.460;2023-12-20T13:12:05;14.40;;;2.03;;
51636;SDS011;37713;53.254;6.460;2023-12-20T13:14:33;18.48;;;2.92;;
51636;SDS011;37713;53.254;6.460;2023-12-20T13:17:00;16.98;;;2.22;;
51636;SDS011;37713;53.254;6.460;2023-12-20T13:19:26;19.38;;;2.55;;
51636;SDS011;37713;53.254;6.460;2023-12-20T13:21:52;19.70;;;2.20;;
51636;SDS011;37713;53.254;6.460;2023-12-20T13:24:18;18.20;;;3.33;;
51636;SDS011;37713;53.254;6.460;2023-12-20T13:26:44;12.82;;;2.38;;
51636;SDS011;37713;53.254;6.460;2023-12-20T13:29:10;15.10;;;1.85;;
51636;SDS011;37713;53.254;6.460;2023-12-20T13:31:37;12.05;;;2.08;;
51636;SDS011;37713;53.254;6.460;2023-12-20T13:34:03;17.42;;;2.88;;
51636;SDS011;37713;53.254;6.460;2023-12-20T13:36:29;14.90;;;1.95;;
51636;SDS011;37713;53.254;6.460;2023-12-20T13:38:55;14.82;;;2.28;;
51636;SDS011;37713;53.254;6.460;2023-12-20T13:41:21;13.10;;;1.80;;
51636;SDS011;37713;53.254;6.460;2023-12-20T13:43:47;22.92;;;2.55;;
51636;SDS011;37713;53.254;6.460;2023-12-20T13:46:13;13.35;;;1.73;;
51636;SDS011;37713;53.254;6.460;2023-12-20T13:48:39;15.75;;;1.95;;
51636;SDS011;37713;53.254;6.460;2023-12-20T13:51:05;11.52;;;1.75;;
51636;SDS011;37713;53.254;6.460;2023-12-20T13:53:31;14.18;;;1.98;;
51636;SDS011;37713;53.254;6.460;2023-12-20T13:55:57;11.77;;;1.58;;
51636;SDS011;37713;53.254;6.460;2023-12-20T13:58:27;16.13;;;1.85;;
51636;SDS011;37713;53.254;6.460;2023-12-20T14:00:53;19.45;;;2.35;;
51636;SDS011;37713;53.254;6.460;2023-12-20T14:03:19;12.32;;;1.55;;
51636;SDS011;37713;53.254;6.460;2023-12-20T14:05:45;11.35;;;1.60;;
51636;SDS011;37713;53.254;6.460;2023-12-20T14:08:11;11.13;;;1.40;;
51636;SDS011;37713;53.254;6.460;2023-12-20T14:10:37;12.02;;;1.50;;
51636;SDS011;37713;53.254;6.460;2023-12-20T14:13:03;7.68;;;1.30;;
51636;SDS011;37713;53.254;6.460;2023-12-20T14:15:30;8.60;;;1.85;;
51636;SDS011;37713;53.254;6.460;2023-12-20T14:18:02;7.80;;;1.48;;
51636;SDS011;37713;53.254;6.460;2023-12-20T14:20:35;7.38;;;1.40;;
51636;SDS011;37713;53.254;6.460;2023-12-20T14:23:01;9.70;;;1.48;;
51636;SDS011;37713;53.254;6.460;2023-12-20T14:25:28;9.07;;;1.30;;
51636;SDS011;37713;53.254;6.460;2023-12-20T14:27:53;9.52;;;1.42;;
51636;SDS011;37713;53.254;6.460;2023-12-20T14:30:20;9.07;;;1.40;;
51636;SDS011;37713;53.254;6.460;2023-12-20T14:32:46;17.55;;;6.05;;